Time;durP1;ratioP1;P1;durP2;ratioP2;P2;SDS_P1;SDS_P2;PMS_P1;PMS_P2;Temp;Humidity;BMP_temperature;BMP_pressure;BME280_temperature;BME280_humidity;BME280_pressure;Samples;Min_cycle;Max_cycle;Signal;HPM_P1;HPM_P2
2023/10/07 00:00:49;;;;;;;12.38;6.45;;;;;;;;;;5052564;28;20094;-68
2023/10/07 00:03:18;;;;;;;12.88;6.25;;;;;;;;;;5059974;28;20048;-68
2023/10/07 00:05:47;;;;;;;11.73;5.30;;;;;;;;;;5069347;28;20040;-68
2023/10/07 00:08:16;;;;;;;10.55;5.57;;;;;;;;;;5071843;28;20482;-68
2023/10/07 00:10:43;;;;;;;15.35;9.02;;;;;;;;;;5058459;28;20025;-68
2023/10/07 00:13:09;;;;;;;11.15;5.90;;;;;;;;;;5066049;28;20432;-68
2023/10/07 00:15:42;;;;;;;11.38;5.72;;;;;;;;;;5068883;28;20043;-68
2023/10/07 00:18:13;;;;;;;11.30;5.60;;;;;;;;;;5060220;28;20485;-68
2023/10/07 00:20:45;;;;;;;11.13;5.82;;;;;;;;;;5046307;28;20359;-68
2023/10/07 00:23:26;;;;;;;13.52;6.78;;;;;;;;;;5072022;28;20025;-68
2023/10/07 00:25:54;;;;;;;11.52;5.38;;;;;;;;;;5060805;28;20075;-68
2023/10/07 00:28:28;;;;;;;11.63;5.93;;;;;;;;;;5064064;28;20124;-68
2023/10/07 00:30:55;;;;;;;12.82;5.70;;;;;;;;;;5064826;28;20345;-68
2023/10/07 00:33:22;;;;;;;10.45;5.20;;;;;;;;;;5049550;28;20028;-68
2023/10/07 00:35:55;;;;;;;13.52;5.80;;;;;;;;;;5059482;28;20071;-68
2023/10/07 00:38:29;;;;;;;10.00;5.25;;;;;;;;;;5065797;28;20028;-68
2023/10/07 00:40:56;;;;;;;12.82;5.90;;;;;;;;;;5071477;28;20036;-68
2023/10/07 00:43:26;;;;;;;13.38;5.68;;;;;;;;;;5064056;28;20025;-68
2023/10/07 00:45:55;;;;;;;10.57;5.57;;;;;;;;;;5064398;28;20474;-68
2023/10/07 00:48:22;;;;;;;11.93;5.97;;;;;;;;;;5063937;28;20048;-68
2023/10/07 00:50:48;;;;;;;10.18;5.10;;;;;;;;;;5067566;28;20082;-68
2023/10/07 00:53:21;;;;;;;11.98;5.55;;;;;;;;;;5058410;28;20032;-68
2023/10/07 00:55:52;;;;;;;16.83;6.63;;;;;;;;;;5066935;28;20040;-68
2023/10/07 00:58:26;;;;;;;10.63;5.63;;;;;;;;;;5070244;28;20024;-68
2023/10/07 01:00:55;;;;;;;11.50;5.43;;;;;;;;;;5056256;28;20029;-68
2023/10/07 01:08:34;;;;;;;10.88;5.28;;;;;;;;;;5066303;28;20157;-68
2023/10/07 01:11:10;;;;;;;12.50;5.47;;;;;;;;;;5050402;28;20101;-68
2023/10/07 01:13:44;;;;;;;10.23;5.13;;;;;;;;;;5060543;28;20025;-68
2023/10/07 01:16:13;;;;;;;9.90;5.10;;;;;;;;;;5069246;28;20131;-68
2023/10/07 01:18:39;;;;;;;9.65;5.05;;;;;;;;;;5046577;28;20405;-68
2023/10/07 01:21:11;;;;;;;10.80;4.97;;;;;;;;;;5054955;28;20036;-68
2023/10/07 01:23:40;;;;;;;10.60;5.55;;;;;;;;;;5067019;28;20024;-69
2023/10/07 01:26:20;;;;;;;9.73;5.15;;;;;;;;;;5059811;28;20021;-68
2023/10/07 01:28:46;;;;;;;16.58;6.75;;;;;;;;;;5050841;28;20021;-68
2023/10/07 01:31:18;;;;;;;11.05;5.30;;;;;;;;;;5067472;28;20027;-67
2023/10/07 01:33:47;;;;;;;9.95;4.45;;;;;;;;;;5066183;28;20025;-67
2023/10/07 01:36:19;;;;;;;9.88;4.93;;;;;;;;;;5056143;28;20366;-68
2023/10/07 01:38:48;;;;;;;11.35;5.70;;;;;;;;;;5060997;28;20032;-68
2023/10/07 01:41:18;;;;;;;9.60;4.88;;;;;;;;;;5060356;28;20521;-67
2023/10/07 01:43:56;;;;;;;10.18;4.90;;;;;;;;;;5060164;28;20470;-68
2023/10/07 01:46:22;;;;;;;10.10;4.88;;;;;;;;;;5063030;28;20020;-68
2023/10/07 01:48:57;;;;;;;12.43;5.25;;;;;;;;;;5065213;28;20505;-68
2023/10/07 01:51:27;;;;;;;10.23;5.13;;;;;;;;;;5062833;28;20029;-67
2023/10/07 01:53:56;;;;;;;10.07;4.25;;;;;;;;;;5059488;28;20028;-68
2023/10/07 01:56:22;;;;;;;11.75;5.60;;;;;;;;;;5061251;28;20449;-67
2023/10/07 01:58:48;;;;;;;11.95;4.93;;;;;;;;;;5064448;28;20114;-67
2023/10/07 02:01:17;;;;;;;10.93;5.03;;;;;;;;;;5055825;28;20075;-68
2023/10/07 02:03:46;;;;;;;14.05;5.68;;;;;;;;;;5062835;28;20056;-67
2023/10/07 02:06:16;;;;;;;11.52;5.40;;;;;;;;;;5067785;28;20038;-67
2023/10/07 02:08:42;;;;;;;10.35;5.15;;;;;;;;;;5065068;28;20079;-67
2023/10/07 02:11:09;;;;;;;10.95;5.07;;;;;;;;;;5057257;28;20024;-68
2023/10/07 02:13:35;;;;;;;11.77;5.20;;;;;;;;;;5060383;28;20100;-67
2023/10/07 02:16:05;;;;;;;13.18;5.65;;;;;;;;;;5063434;28;20809;-67
2023/10/07 02:18:35;;;;;;;11.35;5.75;;;;;;;;;;5057064;28;20033;-67
2023/10/07 02:21:08;;;;;;;12.40;5.10;;;;;;;;;;5052413;28;20024;-66
2023/10/07 02:23:37;;;;;;;13.07;5.93;;;;;;;;;;5069833;28;20082;-67
2023/10/07 02:26:05;;;;;;;12.40;5.43;;;;;;;;;;5057235;28;20078;-66
2023/10/07 02:28:33;;;;;;;10.82;5.47;;;;;;;;;;5059368;28;20109;-66
2023/10/07 02:31:01;;;;;;;12.57;6.03;;;;;;;;;;5059873;28;20152;-67
2023/10/07 02:33:27;;;;;;;12.65;5.28;;;;;;;;;;5066082;28;20349;-67
2023/10/07 02:35:57;;;;;;;13.75;6.00;;;;;;;;;;5059809;28;20027;-67
2023/10/07 02:38:35;;;;;;;10.77;4.63;;;;;;;;;;5062271;28;20466;-67
2023/10/07 02:41:07;;;;;;;8.48;4.60;;;;;;;;;;5056470;28;20029;-67
2023/10/07 02:43:34;;;;;;;9.43;5.07;;;;;;;;;;5060448;28;20467;-66
2023/10/07 02:46:08;;;;;;;11.02;4.75;;;;;;;;;;5062168;28;20838;-67
2023/10/07 02:48:35;;;;;;;9.57;4.53;;;;;;;;;;5052222;28;20041;-66
2023/10/07 02:51:07;;;;;;;11.68;5.72;;;;;;;;;;5063034;28;20020;-66
2023/10/07 02:53:35;;;;;;;12.70;5.97;;;;;;;;;;5058210;28;20057;-67
2023/10/07 02:56:03;;;;;;;13.13;6.00;;;;;;;;;;5064424;28;20029;-66
2023/10/07 02:58:32;;;;;;;11.10;5.65;;;;;;;;;;5066161;28;20032;-66
2023/10/07 03:01:13;;;;;;;11.60;5.95;;;;;;;;;;5053992;28;20009;-66
2023/10/07 03:03:41;;;;;;;12.80;6.03;;;;;;;;;;5063162;28;20367;-67
2023/10/07 03:06:07;;;;;;;11.30;5.30;;;;;;;;;;5063673;28;20025;-66
2023/10/07 03:09:00;;;;;;;10.73;4.93;;;;;;;;;;5066826;28;20033;-66
2023/10/07 03:11:23;;;;;;;9.03;4.87;;;;;;;;;;5057876;28;20025;-67
2023/10/07 03:13:51;;;;;;;13.55;5.90;;;;;;;;;;5065197;28;20056;-67
2023/10/07 03:24:10;;;;;;;14.15;6.07;;;;;;;;;;5064290;28;20198;-67
2023/10/07 03:26:47;;;;;;;11.00;5.35;;;;;;;;;;5042276;28;20017;-67
2023/10/07 03:29:29;;;;;;;11.45;5.30;;;;;;;;;;5059685;28;20021;-67
2023/10/07 03:31:55;;;;;;;12.65;5.47;;;;;;;;;;5062602;28;20036;-67
2023/10/07 03:34:21;;;;;;;9.55;4.93;;;;;;;;;;5053387;28;20052;-67
2023/10/07 03:39:25;;;;;;;12.48;5.22;;;;;;;;;;5060089;28;20054;-67
2023/10/07 03:41:52;;;;;;;11.93;5.80;;;;;;;;;;5069198;28;20099;-67
2023/10/07 03:44:19;;;;;;;11.88;5.95;;;;;;;;;;5057780;28;20024;-67
2023/10/07 03:46:47;;;;;;;14.93;6.85;;;;;;;;;;5058540;28;20078;-67
2023/10/07 03:49:15;;;;;;;11.13;5.95;;;;;;;;;;5068450;28;20393;-67
2023/10/07 03:51:41;;;;;;;12.10;5.20;;;;;;;;;;5058285;28;20025;-67
2023/10/07 03:54:11;;;;;;;11.30;5.30;;;;;;;;;;5061547;28;20119;-67
2023/10/07 03:56:37;;;;;;;;;;;;;;;;;;5047861;28;20020;-67
2023/10/07 03:59:05;;;;;;;13.77;5.35;;;;;;;;;;5062279;28;19908;-68
2023/10/07 04:01:32;;;;;;;10.40;5.15;;;;;;;;;;5055517;28;20384;-67
2023/10/07 04:04:01;;;;;;;12.30;4.78;;;;;;;;;;5062778;28;20591;-67
2023/10/07 04:06:31;;;;;;;13.87;5.80;;;;;;;;;;5066519;28;20047;-67
2023/10/07 04:09:07;;;;;;;10.43;5.57;;;;;;;;;;5062260;28;20054;-67
2023/10/07 04:11:37;;;;;;;11.60;5.43;;;;;;;;;;5059882;28;20478;-67
2023/10/07 04:14:46;;;;;;;11.75;5.50;;;;;;;;;;5061231;28;20125;-67
2023/10/07 04:16:54;;;;;;;13.70;5.50;;;;;;;;;;5055938;28;20033;-67
2023/10/07 04:21:54;;;;;;;12.90;5.15;;;;;;;;;;5057794;28;20074;-67
2023/10/07 04:24:20;;;;;;;12.38;5.50;;;;;;;;;;5066730;28;20041;-67
2023/10/07 04:27:02;;;;;;;12.48;5.90;;;;;;;;;;5053005;28;20092;-68
2023/10/07 04:29:29;;;;;;;12.23;5.13;;;;;;;;;;5057980;28;20021;-67
2023/10/07 04:31:55;;;;;;;10.00;5.75;;;;;;;;;;5058481;28;20047;-67
2023/10/07 04:34:26;;;;;;;9.65;5.15;;;;;;;;;;5054018;28;20478;-67
2023/10/07 04:39:29;;;;;;;12.68;5.35;;;;;;;;;;5057144;28;20033;-67
2023/10/07 04:41:59;;;;;;;14.73;5.78;;;;;;;;;;5068238;28;20035;-67
2023/10/07 04:53:02;;;;;;;11.77;5.35;;;;;;;;;;5010591;28;20025;-67
2023/10/07 04:55:28;;;;;;;8.73;4.68;;;;;;;;;;5066461;28;20028;-67
2023/10/07 05:02:57;;;;;;;11.48;5.22;;;;;;;;;;5059738;28;20415;-67
2023/10/07 05:05:24;;;;;;;16.00;5.80;;;;;;;;;;5070116;28;20020;-67
2023/10/07 05:07:50;;;;;;;11.02;5.20;;;;;;;;;;5059377;28;20025;-67
2023/10/07 05:10:20;;;;;;;11.45;6.18;;;;;;;;;;5050336;28;20449;-67
2023/10/07 05:12:51;;;;;;;9.82;5.45;;;;;;;;;;5062337;28;20032;-68
2023/10/07 05:15:19;;;;;;;8.88;4.43;;;;;;;;;;5056129;28;20079;-67
2023/10/07 05:17:45;;;;;;;13.43;6.38;;;;;;;;;;5052775;28;20033;-67
2023/10/07 05:20:27;;;;;;;13.07;5.15;;;;;;;;;;5051948;28;20399;-67
2023/10/07 05:22:53;;;;;;;12.38;5.47;;;;;;;;;;5056063;28;20112;-67
2023/10/07 05:25:21;;;;;;;10.52;5.15;;;;;;;;;;5052016;28;20021;-67
2023/10/07 05:27:47;;;;;;;9.23;5.00;;;;;;;;;;5049478;28;20043;-67
2023/10/07 05:30:15;;;;;;;12.85;5.70;;;;;;;;;;5052150;28;20009;-67
2023/10/07 05:32:41;;;;;;;13.65;5.00;;;;;;;;;;5052729;28;20028;-67
2023/10/07 05:35:08;;;;;;;9.88;5.00;;;;;;;;;;5050726;28;20021;-67
2023/10/07 05:37:34;;;;;;;13.20;5.75;;;;;;;;;;5056399;28;20020;-69
2023/10/07 05:40:02;;;;;;;13.02;6.35;;;;;;;;;;5050747;28;20096;-68
2023/10/07 05:42:28;;;;;;;12.95;5.55;;;;;;;;;;5053584;28;20025;-68
2023/10/07 05:44:54;;;;;;;11.90;5.35;;;;;;;;;;5034680;28;20024;-69
2023/10/07 05:47:21;;;;;;;11.32;5.47;;;;;;;;;;5055991;28;20016;-68
2023/10/07 05:49:47;;;;;;;12.93;5.95;;;;;;;;;;5053193;28;20017;-68
2023/10/07 05:52:13;;;;;;;9.88;5.03;;;;;;;;;;5051085;28;20036;-68
2023/10/07 05:54:39;;;;;;;11.55;5.85;;;;;;;;;;5043865;28;20026;-68
2023/10/07 05:57:07;;;;;;;8.57;5.20;;;;;;;;;;5052214;28;20033;-68
2023/10/07 05:59:33;;;;;;;10.52;5.45;;;;;;;;;;5051079;28;20037;-68
2023/10/07 06:02:01;;;;;;;22.65;10.18;;;;;;;;;;5050359;28;20085;-69
2023/10/07 06:04:30;;;;;;;84.57;35.42;;;;;;;;;;5048520;28;20040;-69
2023/10/07 06:06:57;;;;;;;101.37;42.00;;;;;;;;;;5053025;28;20303;-69
2023/10/07 06:09:23;;;;;;;70.35;27.13;;;;;;;;;;5049389;28;20033;-68
2023/10/07 06:11:49;;;;;;;28.92;12.20;;;;;;;;;;5047551;28;20025;-69
2023/10/07 06:14:18;;;;;;;29.33;13.65;;;;;;;;;;5050146;28;20532;-68
2023/10/07 06:16:44;;;;;;;17.55;9.07;;;;;;;;;;5050575;28;20104;-69
2023/10/07 06:19:13;;;;;;;22.13;10.57;;;;;;;;;;5051675;28;20025;-68
2023/10/07 06:21:47;;;;;;;15.80;7.88;;;;;;;;;;5057828;28;20450;-68
2023/10/07 06:24:20;;;;;;;14.63;7.03;;;;;;;;;;5063973;28;20044;-69
2023/10/07 06:26:46;;;;;;;15.32;6.45;;;;;;;;;;5051155;28;20021;-68
2023/10/07 06:29:18;;;;;;;11.32;6.07;;;;;;;;;;5054517;28;20025;-69
2023/10/07 06:31:48;;;;;;;12.68;6.43;;;;;;;;;;5051662;28;20021;-67
2023/10/07 06:34:15;;;;;;;;;;;;;;;;;;5060083;28;20436;-66
2023/10/07 06:36:41;;;;;;;11.23;5.93;;;;;;;;;;5055397;28;19913;-66
2023/10/07 06:39:10;;;;;;;11.75;5.60;;;;;;;;;;5059149;28;20024;-66
2023/10/07 06:41:38;;;;;;;12.23;5.87;;;;;;;;;;5056796;28;20035;-69
2023/10/07 06:44:08;;;;;;;9.35;4.95;;;;;;;;;;5063311;28;20024;-67
2023/10/07 06:46:40;;;;;;;13.00;5.85;;;;;;;;;;5056711;28;20065;-67
2023/10/07 06:49:07;;;;;;;11.98;6.30;;;;;;;;;;5056191;28;20073;-67
2023/10/07 06:51:36;;;;;;;14.68;7.07;;;;;;;;;;5051971;28;20025;-65
2023/10/07 06:54:04;;;;;;;14.20;6.55;;;;;;;;;;5058681;28;20787;-71
2023/10/07 06:56:31;;;;;;;14.77;6.68;;;;;;;;;;5061720;28;20020;-68
2023/10/07 06:58:59;;;;;;;19.08;6.47;;;;;;;;;;5068149;28;20104;-67
2023/10/07 07:04:10;;;;;;;12.07;6.78;;;;;;;;;;5059467;28;20044;-68
2023/10/07 07:06:43;;;;;;;13.20;7.15;;;;;;;;;;5060823;28;20027;-66
2023/10/07 07:11:58;;;;;;;10.95;5.93;;;;;;;;;;5061257;28;20529;-69
2023/10/07 07:14:28;;;;;;;12.95;6.43;;;;;;;;;;5062937;28;20044;-67
2023/10/07 07:16:56;;;;;;;15.27;7.17;;;;;;;;;;5064240;28;20035;-74
2023/10/07 07:19:23;;;;;;;15.02;6.95;;;;;;;;;;5055242;28;20032;-73
2023/10/07 07:21:49;;;;;;;12.73;6.13;;;;;;;;;;5057720;28;20036;-75
2023/10/07 07:24:21;;;;;;;16.48;7.20;;;;;;;;;;5066747;28;20085;-74
2023/10/07 07:26:51;;;;;;;11.25;5.70;;;;;;;;;;5053405;28;20017;-74
2023/10/07 07:29:18;;;;;;;13.68;5.80;;;;;;;;;;5060585;28;20073;-74
2023/10/07 07:31:46;;;;;;;11.18;5.88;;;;;;;;;;5063934;28;20020;-73
2023/10/07 07:34:36;;;;;;;12.13;5.97;;;;;;;;;;5053795;28;20070;-70
2023/10/07 07:37:04;;;;;;;11.40;6.13;;;12.40;99.90;;;;;;5051900;28;20057;-68
2023/10/07 07:39:32;;;;;;;13.88;6.53;;;12.40;99.90;;;;;;5065721;28;20462;-65
2023/10/07 07:42:15;;;;;;;13.38;6.70;;;12.50;99.90;;;;;;5068570;28;20069;-66
2023/10/07 07:44:55;;;;;;;12.00;5.65;;;12.60;99.90;;;;;;5049269;28;20029;-69
2023/10/07 07:47:21;;;;;;;;;;;12.60;99.90;;;;;;5064738;28;20513;-69
2023/10/07 07:49:47;;;;;;;17.85;6.97;;;12.80;99.90;;;;;;5069897;28;19904;-72
2023/10/07 07:52:15;;;;;;;11.68;6.35;;;12.90;99.90;;;;;;5061376;28;20801;-76
2023/10/07 07:54:41;;;;;;;13.32;6.80;;;12.90;99.90;;;;;;5057483;28;20431;-68
2023/10/07 07:57:12;;;;;;;13.60;7.00;;;13.00;99.90;;;;;;5066534;28;20028;-71
2023/10/07 07:59:38;;;;;;;11.23;6.05;;;13.20;99.90;;;;;;5039646;28;20501;-69
2023/10/07 08:02:15;;;;;;;12.15;6.40;;;13.30;99.90;;;;;;5059170;28;20036;-70
2023/10/07 08:04:50;;;;;;;15.05;7.00;;;13.40;99.90;;;;;;5045335;28;20044;-68
2023/10/07 08:07:23;;;;;;;12.55;6.57;;;13.50;99.90;;;;;;5051266;28;20037;-68
2023/10/07 08:09:51;;;;;;;12.68;6.38;;;13.80;99.90;;;;;;5053317;28;20899;-69
2023/10/07 08:12:28;;;;;;;11.82;6.25;;;14.20;99.90;;;;;;5053940;28;20024;-68
2023/10/07 08:15:15;;;;;;;13.88;6.43;;;14.60;99.90;;;;;;5054696;28;20025;-68
2023/10/07 08:17:45;;;;;;;14.15;6.40;;;15.10;99.90;;;;;;5048722;28;20036;-68
2023/10/07 08:20:11;;;;;;;12.32;7.13;;;15.50;99.90;;;;;;5049750;28;20033;-70
2023/10/07 08:22:44;;;;;;;9.45;6.40;;;15.70;99.90;;;;;;5053421;28;20112;-67
2023/10/07 08:25:17;;;;;;;11.40;5.95;;;15.60;99.90;;;;;;5055686;28;20064;-68
2023/10/07 08:27:49;;;;;;;10.73;6.38;;;15.70;99.90;;;;;;5058807;28;20434;-67
2023/10/07 08:30:29;;;;;;;10.32;6.15;;;15.80;99.90;;;;;;5060967;28;20446;-68
2023/10/07 08:32:55;;;;;;;12.38;6.30;;;15.80;99.90;;;;;;5069562;28;20048;-68
2023/10/07 08:35:25;;;;;;;12.25;6.15;;;15.80;99.90;;;;;;5054631;28;20067;-70
2023/10/07 08:37:51;;;;;;;14.23;6.88;;;15.80;99.90;;;;;;5063642;28;20076;-73
2023/10/07 08:40:28;;;;;;;12.50;7.07;;;15.90;99.90;;;;;;5059337;28;20025;-71
2023/10/07 08:42:56;;;;;;;12.32;6.40;;;16.10;99.90;;;;;;5053857;28;20524;-71
2023/10/07 08:45:25;;;;;;;9.48;6.43;;;16.30;99.90;;;;;;5053559;28;20037;-68
2023/10/07 08:48:08;;;;;;;16.15;6.22;;;16.50;99.90;;;;;;5070058;28;20509;-68
2023/10/07 08:50:52;;;;;;;10.85;6.13;;;16.80;99.90;;;;;;5062573;28;20109;-68
2023/10/07 08:53:23;;;;;;;15.18;7.18;;;16.90;99.90;;;;;;5060567;28;20024;-70
2023/10/07 08:55:51;;;;;;;10.38;6.05;;;17.00;99.90;;;;;;5069221;28;20024;-70
2023/10/07 08:58:20;;;;;;;13.50;6.38;;;17.00;99.90;;;;;;5063735;28;20025;-70
2023/10/07 09:00:50;;;;;;;11.02;6.50;;;17.00;99.90;;;;;;5054249;28;20025;-69
2023/10/07 09:03:19;;;;;;;11.18;5.60;;;17.10;99.90;;;;;;5064457;28;20017;-70
2023/10/07 09:05:47;;;;;;;8.43;5.90;;;17.20;99.90;;;;;;5063787;28;20032;-71
2023/10/07 09:08:13;;;;;;;11.07;6.32;;;17.20;99.90;;;;;;5060169;28;20112;-70
2023/10/07 09:10:39;;;;;;;11.02;5.72;;;17.30;99.90;;;;;;5063122;28;20177;-69
2023/10/07 09:13:05;;;;;;;13.40;6.57;;;17.50;99.90;;;;;;5059346;28;20021;-69
2023/10/07 09:15:35;;;;;;;11.85;6.35;;;17.60;99.90;;;;;;5058943;28;20036;-69
2023/10/07 09:18:05;;;;;;;12.00;6.50;;;17.70;99.90;;;;;;5051488;28;20039;-68
2023/10/07 09:20:31;;;;;;;;;;;17.80;99.90;;;;;;5057708;28;20040;-69
2023/10/07 09:23:07;;;;;;;12.18;6.30;;;17.90;99.90;;;;;;5062641;28;20747;-68
2023/10/07 09:25:33;;;;;;;12.05;6.38;;;18.10;99.90;;;;;;5059047;28;20735;-69
2023/10/07 09:28:01;;;;;;;11.38;7.03;;;18.30;99.90;;;;;;5066392;28;20025;-68
2023/10/07 09:33:14;;;;;;;12.05;6.10;;;18.50;99.90;;;;;;5053076;28;20421;-72
2023/10/07 09:35:43;;;;;;;11.25;6.55;;;18.50;99.90;;;;;;5055671;28;20033;-69
2023/10/07 09:38:12;;;;;;;15.77;6.85;;;18.60;99.90;;;;;;5065681;28;20461;-67
2023/10/07 09:43:29;;;;;;;10.07;5.97;;;18.50;99.90;;;;;;5062944;28;20029;-66
2023/10/07 09:45:58;;;;;;;11.13;5.95;;;18.50;99.90;;;;;;5063029;28;20025;-67
2023/10/07 09:48:33;;;;;;;10.45;6.05;;;18.40;99.90;;;;;;5065015;28;20478;-68
2023/10/07 09:51:02;;;;;;;19.95;6.38;;;18.40;99.90;;;;;;5064632;28;20630;-67
2023/10/07 09:53:51;;;;;;;12.93;5.93;;;18.40;99.90;;;;;;5053933;28;20392;-68
2023/10/07 09:56:43;;;;;;;12.03;6.27;;;18.40;99.90;;;;;;5065555;28;20085;-72
2023/10/07 09:59:25;;;;;;;12.15;6.82;;;18.40;99.90;;;;;;5040342;28;20382;-67
2023/10/07 10:02:25;;;;;;;13.10;6.53;;;18.50;99.90;;;;;;5058570;28;20390;-69
2023/10/07 10:05:11;;;;;;;11.38;6.50;;;18.70;99.90;;;;;;5048487;28;20020;-69
2023/10/07 10:08:19;;;;;;;14.10;6.40;;;19.00;99.90;;;;;;5058728;28;20029;-69
2023/10/07 10:10:49;;;;;;;11.50;6.55;;;19.20;99.90;;;;;;5053648;28;20035;-71
2023/10/07 10:13:30;;;;;;;13.50;6.35;;;19.20;99.90;;;;;;5063371;28;20016;-72
2023/10/07 10:16:00;;;;;;;;;;;19.30;99.90;;;;;;5062921;28;20036;-71
2023/10/07 10:18:40;;;;;;;12.27;6.85;;;19.40;99.90;;;;;;5054977;28;19912;-73
2023/10/07 10:21:09;;;;;;;12.50;6.30;;;19.50;99.90;;;;;;5060472;28;20028;-73
2023/10/07 10:23:37;;;;;;;12.40;5.73;;;19.60;99.90;;;;;;5064098;28;20032;-72
2023/10/07 10:29:15;;;;;;;12.88;6.05;;;19.70;99.90;;;;;;5018560;28;20041;-73
2023/10/07 10:31:52;;;;;;;13.57;6.17;;;19.80;99.70;;;;;;5067012;28;20040;-71
2023/10/07 10:34:20;;;;;;;10.25;5.32;;;19.90;99.50;;;;;;5056397;28;20024;-68
2023/10/07 10:36:49;;;;;;;11.40;6.35;;;20.00;99.20;;;;;;5056452;28;20381;-76
2023/10/07 10:39:25;;;;;;;11.57;6.10;;;20.20;98.80;;;;;;5065106;28;20027;-67
2023/10/07 10:41:53;;;;;;;10.10;6.22;;;20.30;98.60;;;;;;5069703;28;20029;-68
2023/10/07 10:44:20;;;;;;;9.88;5.82;;;20.30;98.40;;;;;;5058284;28;20031;-67
2023/10/07 10:46:52;;;;;;;10.25;5.50;;;20.40;98.20;;;;;;5059140;28;20027;-69
2023/10/07 10:49:21;;;;;;;10.35;5.50;;;20.50;97.70;;;;;;5067978;28;20389;-67
2023/10/07 10:51:50;;;;;;;8.60;4.05;;;20.70;97.10;;;;;;5057531;28;20032;-69
2023/10/07 10:54:20;;;;;;;6.60;3.67;;;20.90;94.80;;;;;;5049614;28;20031;-69
2023/10/07 10:56:48;;;;;;;7.53;3.78;;;21.00;93.80;;;;;;5051910;28;20021;-69
2023/10/07 10:59:22;;;;;;;7.50;4.10;;;21.10;93.00;;;;;;5050536;28;20434;-73
2023/10/07 11:01:50;;;;;;;9.40;4.38;;;;;;;;;;5051199;28;20024;-70
2023/10/07 11:04:20;;;;;;;5.68;3.40;;;;;;;;;;5052094;28;20047;-70
2023/10/07 11:06:50;;;;;;;;;;;;;;;;;;5067942;28;20497;-71
2023/10/07 11:09:18;;;;;;;7.95;3.65;;;;;;;;;;5051237;28;19920;-71
2023/10/07 11:11:44;;;;;;;4.57;2.95;;;;;;;;;;5059648;28;20023;-74
2023/10/07 11:14:13;;;;;;;5.38;3.53;;;;;;;;;;5066013;28;20422;-76
2023/10/07 11:16:48;;;;;;;5.88;3.33;;;;;;;;;;5049763;28;20017;-76
2023/10/07 11:19:15;;;;;;;6.97;3.42;;;;;;;;;;5056559;28;20086;-73
2023/10/07 11:21:48;;;;;;;6.82;3.53;;;;;;;;;;5065250;28;20047;-75
2023/10/07 11:24:30;;;;;;;6.68;4.22;;;;;;;;;;5067764;28;20107;-75
2023/10/07 11:26:59;;;;;;;4.85;3.03;;;;;;;;;;5066056;28;20024;-80
2023/10/07 11:29:32;;;;;;;5.72;3.88;;;;;;;;;;5045268;28;20752;-75
2023/10/07 11:32:02;;;;;;;5.18;3.38;;;;;;;;;;5047701;28;20037;-75
2023/10/07 11:34:32;;;;;;;6.10;3.50;;;;;;;;;;5048624;28;20035;-73
2023/10/07 11:37:08;;;;;;;6.80;3.67;;;;;;;;;;5024119;28;20136;-74
2023/10/07 11:39:38;;;;;;;8.35;3.97;;;;;;;;;;5041059;28;20029;-78
2023/10/07 11:42:05;;;;;;;6.45;3.38;;;;;;;;;;5048464;28;20411;-68
2023/10/07 11:44:31;;;;;;;6.45;3.60;;;;;;;;;;5048607;28;20032;-70
2023/10/07 11:46:57;;;;;;;4.43;3.45;;;;;;;;;;5045234;28;20017;-69
2023/10/07 11:49:25;;;;;;;8.90;3.20;;;;;;;;;;5056099;28;20639;-69
2023/10/07 11:51:51;;;;;;;5.28;3.42;;;;;;;;;;5060601;28;20052;-69
2023/10/07 11:54:17;;;;;;;8.00;3.58;;;;;;;;;;5050493;28;20018;-69
2023/10/07 11:56:43;;;;;;;6.05;3.28;;;;;;;;;;5061225;28;20025;-69
2023/10/07 11:59:09;;;;;;;6.68;3.97;;;;;;;;;;5049725;28;20575;-69
2023/10/07 12:01:35;;;;;;;5.97;3.72;;;;;;;;;;5058845;28;20047;-68
2023/10/07 12:04:01;;;;;;;12.95;5.35;;;;;;;;;;5052718;28;20177;-67
2023/10/07 12:06:27;;;;;;;7.00;3.90;;;;;;;;;;5066523;28;20032;-67
2023/10/07 12:08:53;;;;;;;6.32;4.13;;;;;;;;;;5053313;28;20082;-68
2023/10/07 12:11:19;;;;;;;5.82;3.67;;;;;;;;;;5059301;28;20438;-67
2023/10/07 12:13:46;;;;;;;5.97;3.20;;;;;;;;;;5055570;28;20036;-67
2023/10/07 12:16:12;;;;;;;6.75;3.90;;;;;;;;;;5062730;28;20029;-67
2023/10/07 12:18:39;;;;;;;6.43;3.67;;;;;;;;;;5056284;28;20100;-67
2023/10/07 12:21:11;;;;;;;9.13;4.32;;;;;;;;;;5063879;28;20567;-67
2023/10/07 12:23:39;;;;;;;8.00;4.50;;;;;;;;;;5061139;28;20025;-67
2023/10/07 12:26:15;;;;;;;9.10;4.15;;;;;;;;;;5054443;28;20021;-68
2023/10/07 12:28:42;;;;;;;6.97;4.10;;;;;;;;;;5059023;28;20029;-68
2023/10/07 12:31:12;;;;;;;6.63;3.67;;;;;;;;;;5053007;28;21459;-68
2023/10/07 12:33:39;;;;;;;;;;;;;;;;;;5061918;28;20031;-67
2023/10/07 12:36:15;;;;;;;12.63;4.50;;;;;;;;;;5064427;28;19959;-78
2023/10/07 12:38:41;;;;;;;6.32;3.72;;;;;;;;;;5059902;28;20111;-70
2023/10/07 12:41:08;;;;;;;6.70;3.95;;;;;;;;;;5063545;28;20056;-69
2023/10/07 12:43:36;;;;;;;6.80;3.63;;;;;;;;;;5065057;28;20044;-71
2023/10/07 12:46:02;;;;;;;7.85;4.10;;;;;;;;;;5058955;28;20025;-71
2023/10/07 12:48:28;;;;;;;5.32;3.83;;;;;;;;;;5043467;28;20044;-70
2023/10/07 12:50:54;;;;;;;7.32;3.92;;;;;;;;;;5064540;28;20027;-70
2023/10/07 12:53:20;;;;;;;7.40;4.22;;;;;;;;;;5059753;28;20062;-71
2023/10/07 12:55:48;;;;;;;6.10;3.72;;;;;;;;;;5062247;28;20414;-70
2023/10/07 12:58:19;;;;;;;7.45;3.58;;;;;;;;;;5067821;28;20074;-70
2023/10/07 13:00:45;;;;;;;5.70;3.55;;;22.70;99.90;;;;;;5057757;28;20021;-70
2023/10/07 13:03:12;;;;;;;7.05;3.60;;;23.00;99.90;;;;;;5062150;28;20035;-70
2023/10/07 13:05:38;;;;;;;8.35;4.20;;;23.00;97.70;;;;;;5068345;28;20033;-70
2023/10/07 13:08:11;;;;;;;6.35;3.65;;;23.10;95.20;;;;;;5050426;28;20402;-70
2023/10/07 13:10:38;;;;;;;7.32;4.30;;;23.10;95.10;;;;;;5062561;28;20474;-70
2023/10/07 13:13:04;;;;;;;6.95;3.88;;;23.20;95.10;;;;;;5063101;28;20052;-70
2023/10/07 13:15:30;;;;;;;8.23;3.97;;;23.10;95.00;;;;;;5070611;28;20458;-70
2023/10/07 13:18:01;;;;;;;7.47;4.13;;;23.10;95.10;;;;;;5057967;28;20027;-70
2023/10/07 13:20:27;;;;;;;5.40;3.63;;;23.20;95.20;;;;;;5064006;28;20067;-76
2023/10/07 13:22:54;;;;;;;7.18;4.25;;;23.10;94.80;;;;;;5067773;28;20373;-75
2023/10/07 13:25:21;;;;;;;5.45;3.80;;;23.00;94.80;;;;;;5060357;28;20482;-71
2023/10/07 13:27:48;;;;;;;7.20;4.10;;;22.80;95.10;;;;;;5061646;28;20059;-72
2023/10/07 13:30:16;;;;;;;7.38;3.60;;;22.70;95.40;;;;;;5064434;28;20033;-72
2023/10/07 13:32:46;;;;;;;6.07;3.85;;;22.70;95.50;;;;;;5065436;28;20021;-74
2023/10/07 13:35:14;;;;;;;6.40;4.25;;;22.60;95.60;;;;;;5052317;28;20021;-70
2023/10/07 13:37:40;;;;;;;10.68;4.10;;;22.50;95.50;;;;;;5062039;28;20063;-68
2023/10/07 13:40:15;;;;;;;7.78;4.55;;;22.40;95.80;;;;;;5053525;28;20029;-68
2023/10/07 13:42:47;;;;;;;6.20;4.30;;;22.40;95.90;;;;;;5050280;28;20155;-71
2023/10/07 13:45:14;;;;;;;7.28;3.63;;;22.30;95.80;;;;;;5052025;28;20442;-71
2023/10/07 13:47:40;;;;;;;7.75;4.47;;;22.40;95.90;;;;;;5050284;28;20060;-66
2023/10/07 13:50:13;;;;;;;7.22;4.70;;;22.50;95.70;;;;;;5050162;28;20021;-67
2023/10/07 13:52:50;;;;;;;6.20;3.88;;;22.60;95.60;;;;;;5051075;28;20036;-67
2023/10/07 13:55:32;;;;;;;7.55;4.25;;;22.90;95.60;;;;;;5049444;28;20021;-71
2023/10/07 13:58:01;;;;;;;7.43;4.50;;;22.90;95.30;;;;;;5048454;28;20586;-68
2023/10/07 14:03:00;;;;;;;7.70;4.00;;;22.90;95.30;;;;;;5051476;28;20462;-70
2023/10/07 14:05:26;;;;;;;9.85;4.13;;;22.80;95.30;;;;;;5053206;28;20029;-71
2023/10/07 14:07:52;;;;;;;6.03;3.97;;;22.80;95.10;;;;;;5051463;28;20024;-68
2023/10/07 14:10:22;;;;;;;7.13;4.38;;;22.80;95.20;;;;;;5053316;28;20036;-77
2023/10/07 14:12:52;;;;;;;6.10;3.63;;;22.80;95.60;;;;;;5050807;28;20454;-66
2023/10/07 14:15:21;;;;;;;7.82;3.58;;;22.70;95.60;;;;;;5065255;28;20032;-74
2023/10/07 14:17:47;;;;;;;6.53;3.88;;;22.70;96.00;;;;;;5058145;28;20694;-78
2023/10/07 14:20:14;;;;;;;4.40;3.22;;;22.70;96.20;;;;;;5063652;28;20032;-79
2023/10/07 14:22:40;;;;;;;6.28;3.75;;;22.70;96.40;;;;;;5067774;28;20032;-74
2023/10/07 14:25:06;;;;;;;7.05;4.25;;;22.70;95.70;;;;;;5061502;28;20125;-80
2023/10/07 14:27:32;;;;;;;8.13;4.22;;;22.80;95.40;;;;;;5058394;28;20036;-71
2023/10/07 14:29:58;;;;;;;4.95;3.63;;;22.90;95.40;;;;;;5067134;28;20028;-72
2023/10/07 14:32:24;;;;;;;6.00;3.83;;;22.90;95.70;;;;;;5063306;28;20048;-69
2023/10/07 14:34:51;;;;;;;10.32;4.60;;;22.90;95.70;;;;;;5056428;28;20416;-70
2023/10/07 14:37:16;;;;;;;8.30;4.53;;;23.00;95.60;;;;;;5059391;28;20040;-76
2023/10/07 14:39:42;;;;;;;6.35;4.30;;;22.90;95.30;;;;;;5066998;28;20382;-68
2023/10/07 14:42:07;;;;;;;6.40;4.53;;;22.90;95.80;;;;;;5055423;28;20033;-70
2023/10/07 14:44:34;;;;;;;7.40;4.05;;;22.90;95.80;;;;;;5057821;28;20428;-68
2023/10/07 14:46:59;;;;;;;8.35;4.00;;;22.80;96.40;;;;;;5060819;28;20036;-67
2023/10/07 14:49:25;;;;;;;6.88;4.20;;;22.70;96.00;;;;;;5061564;28;20112;-66
2023/10/07 14:51:52;;;;;;;7.57;4.28;;;22.60;95.90;;;;;;5062618;28;20032;-66
2023/10/07 14:54:18;;;;;;;4.55;3.67;;;22.50;96.20;;;;;;5056613;28;20028;-66
2023/10/07 14:56:44;;;;;;;10.13;5.03;;;22.60;96.40;;;;;;5062738;28;20346;-67